sensor_id;sensor_type;location;lat;lon;timestamp;P1;durP1;ratioP1;P2;durP2;ratioP2
69404;SDS011;57084;52.046;5.632;2022-12-07T00:00:00;9.3;;;4.4;;
69404;SDS011;57084;52.046;5.632;2022-12-07T00:01:04;9.3;;;4.4;;
69404;SDS011;57084;52.046;5.632;2022-12-07T00:02:00;9.3;;;4.4;;
69404;SDS011;57084;52.046;5.632;2022-12-07T00:03:00;9.3;;;4.4;;
69404;SDS011;57084;52.046;5.632;2022-12-07T00:04:02;8.3;;;5.5;;
69404;SDS011;57084;52.046;5.632;2022-12-07T00:05:00;8.3;;;5.5;;
69404;SDS011;57084;52.046;5.632;2022-12-07T00:06:02;8.3;;;5.5;;
69404;SDS011;57084;52.046;5.632;2022-12-07T00:07:00;8.3;;;5.5;;
69404;SDS011;57084;52.046;5.632;2022-12-07T00:08:00;8.3;;;5.5;;
69404;SDS011;57084;52.046;5.632;2022-12-07T00:09:00;10.8;;;5.3;;
69404;SDS011;57084;52.046;5.632;2022-12-07T00:10:00;10.8;;;5.3;;
69404;SDS011;57084;52.046;5.632;2022-12-07T00:11:01;10.8;;;5.3;;
69404;SDS011;57084;52.046;5.632;2022-12-07T00:12:00;10.8;;;5.3;;
69404;SDS011;57084;52.046;5.632;2022-12-07T00:13:00;10.8;;;5.3;;
69404;SDS011;57084;52.046;5.632;2022-12-07T00:14:02;8.7;;;5.6;;
69404;SDS011;57084;52.046;5.632;2022-12-07T00:15:00;8.7;;;5.6;;
69404;SDS011;57084;52.046;5.632;2022-12-07T00:16:01;8.7;;;5.6;;
69404;SDS011;57084;52.046;5.632;2022-12-07T00:17:00;8.7;;;5.6;;
69404;SDS011;57084;52.046;5.632;2022-12-07T00:18:00;8.7;;;5.6;;
69404;SDS011;57084;52.046;5.632;2022-12-07T00:19:01;7.7;;;4.9;;
69404;SDS011;57084;52.046;5.632;2022-12-07T00:20:00;7.7;;;4.9;;
69404;SDS011;57084;52.046;5.632;2022-12-07T00:21:00;7.7;;;4.9;;
69404;SDS011;57084;52.046;5.632;2022-12-07T00:22:00;7.7;;;4.9;;
69404;SDS011;57084;52.046;5.632;2022-12-07T00:23:00;7.7;;;4.9;;
69404;SDS011;57084;52.046;5.632;2022-12-07T00:24:01;8.4;;;6.0;;
69404;SDS011;57084;52.046;5.632;2022-12-07T00:25:00;8.4;;;6.0;;
69404;SDS011;57084;52.046;5.632;2022-12-07T00:26:05;8.4;;;6.0;;
69404;SDS011;57084;52.046;5.632;2022-12-07T00:27:00;8.4;;;6.0;;
69404;SDS011;57084;52.046;5.632;2022-12-07T00:28:00;8.4;;;6.0;;
69404;SDS011;57084;52.046;5.632;2022-12-07T00:29:02;8.4;;;6.0;;
69404;SDS011;57084;52.046;5.632;2022-12-07T00:30:00;8.7;;;6.7;;
69404;SDS011;57084;52.046;5.632;2022-12-07T00:31:02;8.7;;;6.7;;
69404;SDS011;57084;52.046;5.632;2022-12-07T00:32:00;8.7;;;6.7;;
69404;SDS011;57084;52.046;5.632;2022-12-07T00:33:00;8.7;;;6.7;;
69404;SDS011;57084;52.046;5.632;2022-12-07T00:34:01;8.7;;;6.7;;
69404;SDS011;57084;52.046;5.632;2022-12-07T00:35:00;10.5;;;6.9;;
69404;SDS011;57084;52.046;5.632;2022-12-07T00:36:01;10.5;;;6.9;;
69404;SDS011;57084;52.046;5.632;2022-12-07T00:37:00;10.5;;;6.9;;
69404;SDS011;57084;52.046;5.632;2022-12-07T00:38:00;10.5;;;6.9;;
69404;SDS011;57084;52.046;5.632;2022-12-07T00:39:02;10.5;;;6.9;;
69404;SDS011;57084;52.046;5.632;2022-12-07T00:40:00;9.6;;;8.3;;
69404;SDS011;57084;52.046;5.632;2022-12-07T00:41:02;9.6;;;8.3;;
69404;SDS011;57084;52.046;5.632;2022-12-07T00:42:00;9.6;;;8.3;;
69404;SDS011;57084;52.046;5.632;2022-12-07T00:43:00;9.6;;;8.3;;
69404;SDS011;57084;52.046;5.632;2022-12-07T00:44:00;9.6;;;8.3;;
69404;SDS011;57084;52.046;5.632;2022-12-07T00:45:00;12.5;;;9.2;;
69404;SDS011;57084;52.046;5.632;2022-12-07T00:46:00;12.5;;;9.2;;
69404;SDS011;57084;52.046;5.632;2022-12-07T00:47:00;12.5;;;9.2;;
69404;SDS011;57084;52.046;5.632;2022-12-07T00:48:00;12.5;;;9.2;;
69404;SDS011;57084;52.046;5.632;2022-12-07T00:49:00;12.5;;;9.2;;
69404;SDS011;57084;52.046;5.632;2022-12-07T00:50:00;11.3;;;8.4;;
69404;SDS011;57084;52.046;5.632;2022-12-07T00:51:00;11.3;;;8.4;;
69404;SDS011;57084;52.046;5.632;2022-12-07T00:52:00;11.3;;;8.4;;
69404;SDS011;57084;52.046;5.632;2022-12-07T00:53:00;11.3;;;8.4;;
69404;SDS011;57084;52.046;5.632;2022-12-07T00:54:00;11.3;;;8.4;;
69404;SDS011;57084;52.046;5.632;2022-12-07T00:55:00;10.3;;;9.3;;
69404;SDS011;57084;52.046;5.632;2022-12-07T00:56:04;10.3;;;9.3;;
69404;SDS011;57084;52.046;5.632;2022-12-07T00:57:00;10.3;;;9.3;;
69404;SDS011;57084;52.046;5.632;2022-12-07T00:58:00;10.3;;;9.3;;
69404;SDS011;57084;52.046;5.632;2022-12-07T00:59:02;10.3;;;9.3;;
69404;SDS011;57084;52.046;5.632;2022-12-07T01:00:00;13.5;;;12.3;;
69404;SDS011;57084;52.046;5.632;2022-12-07T01:01:01;13.5;;;12.3;;
69404;SDS011;57084;52.046;5.632;2022-12-07T01:02:00;13.5;;;12.3;;
69404;SDS011;57084;52.046;5.632;2022-12-07T01:03:00;13.5;;;12.3;;
69404;SDS011;57084;52.046;5.632;2022-12-07T01:04:01;13.5;;;12.3;;
69404;SDS011;57084;52.046;5.632;2022-12-07T01:05:00;12.2;;;10.9;;
69404;SDS011;57084;52.046;5.632;2022-12-07T01:06:02;12.2;;;10.9;;
69404;SDS011;57084;52.046;5.632;2022-12-07T01:07:00;12.2;;;10.9;;
69404;SDS011;57084;52.046;5.632;2022-12-07T01:08:01;12.2;;;10.9;;
69404;SDS011;57084;52.046;5.632;2022-12-07T01:09:01;12.2;;;10.9;;
69404;SDS011;57084;52.046;5.632;2022-12-07T01:10:00;12.6;;;11.4;;
69404;SDS011;57084;52.046;5.632;2022-12-07T01:11:02;12.6;;;11.4;;
69404;SDS011;57084;52.046;5.632;2022-12-07T01:12:00;12.6;;;11.4;;
69404;SDS011;57084;52.046;5.632;2022-12-07T01:13:00;12.6;;;11.4;;
69404;SDS011;57084;52.046;5.632;2022-12-07T01:14:01;12.6;;;11.4;;
69404;SDS011;57084;52.046;5.632;2022-12-07T01:15:00;14.2;;;12.8;;
69404;SDS011;57084;52.046;5.632;2022-12-07T01:16:02;14.2;;;12.8;;
69404;SDS011;57084;52.046;5.632;2022-12-07T01:17:00;14.2;;;12.8;;
69404;SDS011;57084;52.046;5.632;2022-12-07T01:18:00;14.2;;;12.8;;
69404;SDS011;57084;52.046;5.632;2022-12-07T01:19:01;14.2;;;12.8;;
69404;SDS011;57084;52.046;5.632;2022-12-07T01:20:01;14.5;;;12.7;;
69404;SDS011;57084;52.046;5.632;2022-12-07T01:21:01;14.5;;;12.7;;
69404;SDS011;57084;52.046;5.632;2022-12-07T01:22:00;14.5;;;12.7;;
69404;SDS011;57084;52.046;5.632;2022-12-07T01:23:00;14.5;;;12.7;;
69404;SDS011;57084;52.046;5.632;2022-12-07T01:24:01;14.5;;;12.7;;
69404;SDS011;57084;52.046;5.632;2022-12-07T01:25:01;13.1;;;11.9;;
69404;SDS011;57084;52.046;5.632;2022-12-07T01:26:03;13.1;;;11.9;;
69404;SDS011;57084;52.046;5.632;2022-12-07T01:27:00;13.1;;;11.9;;
69404;SDS011;57084;52.046;5.632;2022-12-07T01:28:00;13.1;;;11.9;;
69404;SDS011;57084;52.046;5.632;2022-12-07T01:29:00;13.1;;;11.9;;
69404;SDS011;57084;52.046;5.632;2022-12-07T01:30:01;13.3;;;12.0;;
69404;SDS011;57084;52.046;5.632;2022-12-07T01:31:03;13.3;;;12.0;;
69404;SDS011;57084;52.046;5.632;2022-12-07T01:32:00;13.3;;;12.0;;
69404;SDS011;57084;52.046;5.632;2022-12-07T01:33:00;13.3;;;12.0;;
69404;SDS011;57084;52.046;5.632;2022-12-07T01:34:00;13.3;;;12.0;;
69404;SDS011;57084;52.046;5.632;2022-12-07T01:35:00;13.5;;;11.4;;
69404;SDS011;57084;52.046;5.632;2022-12-07T01:36:01;13.5;;;11.4;;
69404;SDS011;57084;52.046;5.632;2022-12-07T01:37:00;13.5;;;11.4;;
69404;SDS011;57084;52.046;5.632;2022-12-07T01:38:00;13.5;;;11.4;;
69404;SDS011;57084;52.046;5.632;2022-12-07T01:39:03;13.5;;;11.4;;
69404;SDS011;57084;52.046;5.632;2022-12-07T01:40:00;14.1;;;11.5;;
69404;SDS011;57084;52.046;5.632;2022-12-07T01:41:01;14.1;;;11.5;;
69404;SDS011;57084;52.046;5.632;2022-12-07T01:42:00;14.1;;;11.5;;
69404;SDS011;57084;52.046;5.632;2022-12-07T01:43:00;14.1;;;11.5;;
69404;SDS011;57084;52.046;5.632;2022-12-07T01:44:12;14.1;;;11.5;;
69404;SDS011;57084;52.046;5.632;2022-12-07T01:46:00;12.9;;;11.7;;
69404;SDS011;57084;52.046;5.632;2022-12-07T01:47:02;12.9;;;11.7;;
69404;SDS011;57084;52.046;5.632;2022-12-07T01:48:01;12.9;;;11.7;;
69404;SDS011;57084;52.046;5.632;2022-12-07T01:49:01;12.9;;;11.7;;
69404;SDS011;57084;52.046;5.632;2022-12-07T01:50:00;12.9;;;11.6;;
69404;SDS011;57084;52.046;5.632;2022-12-07T01:51:03;12.9;;;11.6;;
69404;SDS011;57084;52.046;5.632;2022-12-07T01:52:09;12.9;;;11.6;;
69404;SDS011;57084;52.046;5.632;2022-12-07T01:53:03;12.9;;;11.6;;
69404;SDS011;57084;52.046;5.632;2022-12-07T01:54:00;12.9;;;11.6;;
69404;SDS011;57084;52.046;5.632;2022-12-07T01:55:03;13.1;;;11.8;;
69404;SDS011;57084;52.046;5.632;2022-12-07T01:56:00;13.1;;;11.8;;
69404;SDS011;57084;52.046;5.632;2022-12-07T01:57:00;13.1;;;11.8;;
69404;SDS011;57084;52.046;5.632;2022-12-07T01:58:00;13.1;;;11.8;;
69404;SDS011;57084;52.046;5.632;2022-12-07T01:59:00;13.1;;;11.8;;
69404;SDS011;57084;52.046;5.632;2022-12-07T02:00:00;14.7;;;13.1;;
69404;SDS011;57084;52.046;5.632;2022-12-07T02:01:00;14.7;;;13.1;;
69404;SDS011;57084;52.046;5.632;2022-12-07T02:02:02;14.7;;;13.1;;
69404;SDS011;57084;52.046;5.632;2022-12-07T02:03:04;14.7;;;13.1;;
69404;SDS011;57084;52.046;5.632;2022-12-07T02:04:00;14.7;;;13.1;;
69404;SDS011;57084;52.046;5.632;2022-12-07T02:05:03;14.4;;;13.0;;
69404;SDS011;57084;52.046;5.632;2022-12-07T02:06:00;14.4;;;13.0;;
69404;SDS011;57084;52.046;5.632;2022-12-07T02:07:00;14.4;;;13.0;;
69404;SDS011;57084;52.046;5.632;2022-12-07T02:08:01;14.4;;;13.0;;
69404;SDS011;57084;52.046;5.632;2022-12-07T02:09:00;14.4;;;13.0;;
69404;SDS011;57084;52.046;5.632;2022-12-07T02:10:12;13.9;;;12.6;;
69404;SDS011;57084;52.046;5.632;2022-12-07T02:11:01;13.9;;;12.6;;
69404;SDS011;57084;52.046;5.632;2022-12-07T02:12:01;13.9;;;12.6;;
69404;SDS011;57084;52.046;5.632;2022-12-07T02:13:03;13.9;;;12.6;;
69404;SDS011;57084;52.046;5.632;2022-12-07T02:14:00;13.9;;;12.6;;
69404;SDS011;57084;52.046;5.632;2022-12-07T02:15:00;13.4;;;12.1;;
69404;SDS011;57084;52.046;5.632;2022-12-07T02:16:10;13.4;;;12.1;;
69404;SDS011;57084;52.046;5.632;2022-12-07T02:17:07;13.4;;;12.1;;
69404;SDS011;57084;52.046;5.632;2022-12-07T02:18:05;13.4;;;12.1;;
69404;SDS011;57084;52.046;5.632;2022-12-07T02:19:14;13.4;;;12.1;;
69404;SDS011;57084;52.046;5.632;2022-12-07T02:20:07;13.4;;;12.2;;
69404;SDS011;57084;52.046;5.632;2022-12-07T02:21:06;13.4;;;12.2;;
69404;SDS011;57084;52.046;5.632;2022-12-07T02:22:10;13.4;;;12.2;;
69404;SDS011;57084;52.046;5.632;2022-12-07T02:23:15;13.4;;;12.2;;
69404;SDS011;57084;52.046;5.632;2022-12-07T02:24:14;13.4;;;12.2;;
69404;SDS011;57084;52.046;5.632;2022-12-07T02:25:08;15.3;;;12.7;;
69404;SDS011;57084;52.046;5.632;2022-12-07T02:27:10;15.3;;;12.7;;
69404;SDS011;57084;52.046;5.632;2022-12-07T02:28:05;15.3;;;12.7;;
69404;SDS011;57084;52.046;5.632;2022-12-07T02:29:10;15.3;;;12.7;;
69404;SDS011;57084;52.046;5.632;2022-12-07T02:30:03;15.3;;;12.7;;
69404;SDS011;57084;52.046;5.632;2022-12-07T02:31:04;13.3;;;12.1;;
69404;SDS011;57084;52.046;5.632;2022-12-07T02:32:05;13.3;;;12.1;;
69404;SDS011;57084;52.046;5.632;2022-12-07T02:33:04;13.3;;;12.1;;
69404;SDS011;57084;52.046;5.632;2022-12-07T02:34:05;13.3;;;12.1;;
69404;SDS011;57084;52.046;5.632;2022-12-07T02:35:05;13.3;;;12.1;;
69404;SDS011;57084;52.046;5.632;2022-12-07T02:36:04;15.0;;;11.5;;
69404;SDS011;57084;52.046;5.632;2022-12-07T02:37:03;15.0;;;11.5;;
69404;SDS011;57084;52.046;5.632;2022-12-07T02:38:06;15.0;;;11.5;;
69404;SDS011;57084;52.046;5.632;2022-12-07T02:39:05;15.0;;;11.5;;
69404;SDS011;57084;52.046;5.632;2022-12-07T02:40:05;15.0;;;11.5;;
69404;SDS011;57084;52.046;5.632;2022-12-07T02:41:04;13.7;;;12.0;;
69404;SDS011;57084;52.046;5.632;2022-12-07T02:42:05;13.7;;;12.0;;
69404;SDS011;57084;52.046;5.632;2022-12-07T02:43:05;13.7;;;12.0;;
69404;SDS011;57084;52.046;5.632;2022-12-07T02:44:03;13.7;;;12.0;;
69404;SDS011;57084;52.046;5.632;2022-12-07T02:45:01;13.7;;;12.0;;
69404;SDS011;57084;52.046;5.632;2022-12-07T02:46:04;12.8;;;11.5;;
69404;SDS011;57084;52.046;5.632;2022-12-07T02:47:03;12.8;;;11.5;;
69404;SDS011;57084;52.046;5.632;2022-12-07T02:48:01;12.8;;;11.5;;
69404;SDS011;57084;52.046;5.632;2022-12-07T02:49:10;12.8;;;11.5;;
69404;SDS011;57084;52.046;5.632;2022-12-07T02:50:03;12.8;;;11.5;;
69404;SDS011;57084;52.046;5.632;2022-12-07T02:51:00;14.3;;;11.6;;
69404;SDS011;57084;52.046;5.632;2022-12-07T02:52:00;14.3;;;11.6;;
69404;SDS011;57084;52.046;5.632;2022-12-07T02:53:00;14.3;;;11.6;;
69404;SDS011;57084;52.046;5.632;2022-12-07T02:54:01;14.3;;;11.6;;
69404;SDS011;57084;52.046;5.632;2022-12-07T02:55:00;14.3;;;11.6;;
69404;SDS011;57084;52.046;5.632;2022-12-07T02:56:05;13.3;;;12.0;;
69404;SDS011;57084;52.046;5.632;2022-12-07T02:57:05;13.3;;;12.0;;
69404;SDS011;57084;52.046;5.632;2022-12-07T02:58:10;13.3;;;12.0;;
69404;SDS011;57084;52.046;5.632;2022-12-07T02:59:10;13.3;;;12.0;;
69404;SDS011;57084;52.046;5.632;2022-12-07T03:00:03;13.3;;;12.0;;
69404;SDS011;57084;52.046;5.632;2022-12-07T03:01:10;13.2;;;11.8;;
69404;SDS011;57084;52.046;5.632;2022-12-07T03:02:09;13.2;;;11.8;;
69404;SDS011;57084;52.046;5.632;2022-12-07T03:03:03;13.2;;;11.8;;
69404;SDS011;57084;52.046;5.632;2022-12-07T03:04:09;13.2;;;11.8;;
69404;SDS011;57084;52.046;5.632;2022-12-07T03:05:09;13.2;;;11.8;;
69404;SDS011;57084;52.046;5.632;2022-12-07T03:06:09;12.9;;;11.6;;
69404;SDS011;57084;52.046;5.632;2022-12-07T03:07:05;12.9;;;11.6;;
69404;SDS011;57084;52.046;5.632;2022-12-07T03:08:04;12.9;;;11.6;;
69404;SDS011;57084;52.046;5.632;2022-12-07T03:09:09;12.9;;;11.6;;
69404;SDS011;57084;52.046;5.632;2022-12-07T03:10:03;12.9;;;11.6;;
69404;SDS011;57084;52.046;5.632;2022-12-07T03:11:03;15.1;;;13.3;;
69404;SDS011;57084;52.046;5.632;2022-12-07T03:12:06;15.1;;;13.3;;
69404;SDS011;57084;52.046;5.632;2022-12-07T03:13:04;15.1;;;13.3;;
69404;SDS011;57084;52.046;5.632;2022-12-07T03:14:06;15.1;;;13.3;;
69404;SDS011;57084;52.046;5.632;2022-12-07T03:15:03;15.1;;;13.3;;
69404;SDS011;57084;52.046;5.632;2022-12-07T03:16:06;14.7;;;13.2;;
69404;SDS011;57084;52.046;5.632;2022-12-07T03:17:04;14.7;;;13.2;;
69404;SDS011;57084;52.046;5.632;2022-12-07T03:18:03;14.7;;;13.2;;
69404;SDS011;57084;52.046;5.632;2022-12-07T03:19:03;14.7;;;13.2;;
69404;SDS011;57084;52.046;5.632;2022-12-07T03:20:04;14.7;;;13.2;;
69404;SDS011;57084;52.046;5.632;2022-12-07T03:21:05;12.6;;;11.5;;
69404;SDS011;57084;52.046;5.632;2022-12-07T03:22:04;12.6;;;11.5;;
69404;SDS011;57084;52.046;5.632;2022-12-07T03:23:03;12.6;;;11.5;;
69404;SDS011;57084;52.046;5.632;2022-12-07T03:24:04;12.6;;;11.5;;
69404;SDS011;57084;52.046;5.632;2022-12-07T03:25:03;12.6;;;11.5;;
69404;SDS011;57084;52.046;5.632;2022-12-07T03:26:01;13.2;;;12.0;;
69404;SDS011;57084;52.046;5.632;2022-12-07T03:27:03;13.2;;;12.0;;
69404;SDS011;57084;52.046;5.632;2022-12-07T03:28:03;13.2;;;12.0;;
69404;SDS011;57084;52.046;5.632;2022-12-07T03:29:06;13.2;;;12.0;;
69404;SDS011;57084;52.046;5.632;2022-12-07T03:30:05;13.2;;;12.0;;
69404;SDS011;57084;52.046;5.632;2022-12-07T03:31:03;12.7;;;11.6;;
69404;SDS011;57084;52.046;5.632;2022-12-07T03:32:04;12.7;;;11.6;;
69404;SDS011;57084;52.046;5.632;2022-12-07T03:33:04;12.7;;;11.6;;
69404;SDS011;57084;52.046;5.632;2022-12-07T03:34:05;12.7;;;11.6;;
69404;SDS011;57084;52.046;5.632;2022-12-07T03:35:03;12.7;;;11.6;;
69404;SDS011;57084;52.046;5.632;2022-12-07T03:36:04;12.6;;;11.4;;
69404;SDS011;57084;52.046;5.632;2022-12-07T03:37:04;12.6;;;11.4;;
69404;SDS011;57084;52.046;5.632;2022-12-07T03:38:05;12.6;;;11.4;;
69404;SDS011;57084;52.046;5.632;2022-12-07T03:39:04;12.6;;;11.4;;
69404;SDS011;57084;52.046;5.632;2022-12-07T03:40:06;12.6;;;11.4;;
69404;SDS011;57084;52.046;5.632;2022-12-07T03:41:05;16.0;;;11.5;;
69404;SDS011;57084;52.046;5.632;2022-12-07T03:42:03;16.0;;;11.5;;
69404;SDS011;57084;52.046;5.632;2022-12-07T03:43:01;16.0;;;11.5;;
69404;SDS011;57084;52.046;5.632;2022-12-07T03:44:00;16.0;;;11.5;;
69404;SDS011;57084;52.046;5.632;2022-12-07T03:45:02;16.0;;;11.5;;
69404;SDS011;57084;52.046;5.632;2022-12-07T03:46:07;12.5;;;11.2;;
69404;SDS011;57084;52.046;5.632;2022-12-07T03:47:03;12.5;;;11.2;;
69404;SDS011;57084;52.046;5.632;2022-12-07T03:48:06;12.5;;;11.2;;
69404;SDS011;57084;52.046;5.632;2022-12-07T03:49:06;12.5;;;11.2;;
69404;SDS011;57084;52.046;5.632;2022-12-07T03:50:05;12.5;;;11.2;;
69404;SDS011;57084;52.046;5.632;2022-12-07T03:51:08;13.5;;;11.1;;
69404;SDS011;57084;52.046;5.632;2022-12-07T03:52:04;13.5;;;11.1;;
69404;SDS011;57084;52.046;5.632;2022-12-07T03:53:07;13.5;;;11.1;;
69404;SDS011;57084;52.046;5.632;2022-12-07T03:54:07;13.5;;;11.1;;
69404;SDS011;57084;52.046;5.632;2022-12-07T03:55:06;13.5;;;11.1;;
69404;SDS011;57084;52.046;5.632;2022-12-07T03:56:01;12.7;;;11.4;;
69404;SDS011;57084;52.046;5.632;2022-12-07T03:57:01;12.7;;;11.4;;
69404;SDS011;57084;52.046;5.632;2022-12-07T03:58:03;12.7;;;11.4;;
69404;SDS011;57084;52.046;5.632;2022-12-07T03:59:00;12.7;;;11.4;;
69404;SDS011;57084;52.046;5.632;2022-12-07T04:00:02;12.7;;;11.4;;
69404;SDS011;57084;52.046;5.632;2022-12-07T04:01:00;12.7;;;11.4;;
69404;SDS011;57084;52.046;5.632;2022-12-07T04:02:02;12.7;;;11.4;;
69404;SDS011;57084;52.046;5.632;2022-12-07T04:03:00;12.7;;;11.4;;
69404;SDS011;57084;52.046;5.632;2022-12-07T04:04:00;12.7;;;11.4;;
69404;SDS011;57084;52.046;5.632;2022-12-07T04:05:01;12.7;;;11.4;;
69404;SDS011;57084;52.046;5.632;2022-12-07T04:06:00;15.7;;;11.2;;
69404;SDS011;57084;52.046;5.632;2022-12-07T04:07:00;15.7;;;11.2;;
69404;SDS011;57084;52.046;5.632;2022-12-07T04:08:00;15.7;;;11.2;;
69404;SDS011;57084;52.046;5.632;2022-12-07T04:09:00;15.7;;;11.2;;
69404;SDS011;57084;52.046;5.632;2022-12-07T04:10:00;15.7;;;11.2;;
69404;SDS011;57084;52.046;5.632;2022-12-07T04:11:00;13.0;;;11.8;;
69404;SDS011;57084;52.046;5.632;2022-12-07T04:12:00;13.0;;;11.8;;
69404;SDS011;57084;52.046;5.632;2022-12-07T04:13:00;13.0;;;11.8;;
69404;SDS011;57084;52.046;5.632;2022-12-07T04:14:00;13.0;;;11.8;;
69404;SDS011;57084;52.046;5.632;2022-12-07T04:15:00;13.0;;;11.8;;
69404;SDS011;57084;52.046;5.632;2022-12-07T04:16:00;13.0;;;11.7;;
69404;SDS011;57084;52.046;5.632;2022-12-07T04:17:00;13.0;;;11.7;;
69404;SDS011;57084;52.046;5.632;2022-12-07T04:18:00;13.0;;;11.7;;
69404;SDS011;57084;52.046;5.632;2022-12-07T04:19:00;13.0;;;11.7;;
69404;SDS011;57084;52.046;5.632;2022-12-07T04:20:00;13.0;;;11.7;;
69404;SDS011;57084;52.046;5.632;2022-12-07T04:21:00;13.0;;;11.7;;
69404;SDS011;57084;52.046;5.632;2022-12-07T04:22:02;12.2;;;11.0;;
69404;SDS011;57084;52.046;5.632;2022-12-07T04:23:00;12.2;;;11.0;;
69404;SDS011;57084;52.046;5.632;2022-12-07T04:24:00;12.2;;;11.0;;
69404;SDS011;57084;52.046;5.632;2022-12-07T04:25:00;12.2;;;11.0;;
69404;SDS011;57084;52.046;5.632;2022-12-07T04:26:00;12.2;;;11.0;;
69404;SDS011;57084;52.046;5.632;2022-12-07T04:27:00;12.5;;;11.4;;
69404;SDS011;57084;52.046;5.632;2022-12-07T04:28:00;12.5;;;11.4;;
69404;SDS011;57084;52.046;5.632;2022-12-07T04:29:00;12.5;;;11.4;;
69404;SDS011;57084;52.046;5.632;2022-12-07T04:30:00;12.5;;;11.4;;
69404;SDS011;57084;52.046;5.632;2022-12-07T04:31:00;12.5;;;11.4;;
69404;SDS011;57084;52.046;5.632;2022-12-07T04:32:00;14.9;;;12.3;;
69404;SDS011;57084;52.046;5.632;2022-12-07T04:33:00;14.9;;;12.3;;
69404;SDS011;57084;52.046;5.632;2022-12-07T04:34:00;14.9;;;12.3;;
69404;SDS011;57084;52.046;5.632;2022-12-07T04:35:00;14.9;;;12.3;;
69404;SDS011;57084;52.046;5.632;2022-12-07T04:36:00;14.9;;;12.3;;
69404;SDS011;57084;52.046;5.632;2022-12-07T04:37:00;13.7;;;12.4;;
69404;SDS011;57084;52.046;5.632;2022-12-07T04:38:00;13.7;;;12.4;;
69404;SDS011;57084;52.046;5.632;2022-12-07T04:39:01;13.7;;;12.4;;
69404;SDS011;57084;52.046;5.632;2022-12-07T04:40:00;13.7;;;12.4;;
69404;SDS011;57084;52.046;5.632;2022-12-07T04:41:04;13.7;;;12.4;;
69404;SDS011;57084;52.046;5.632;2022-12-07T04:42:00;14.3;;;10.7;;
69404;SDS011;57084;52.046;5.632;2022-12-07T04:43:00;14.3;;;10.7;;
69404;SDS011;57084;52.046;5.632;2022-12-07T04:44:02;14.3;;;10.7;;
69404;SDS011;57084;52.046;5.632;2022-12-07T04:45:00;14.3;;;10.7;;
69404;SDS011;57084;52.046;5.632;2022-12-07T04:46:01;14.3;;;10.7;;
69404;SDS011;57084;52.046;5.632;2022-12-07T04:47:00;12.4;;;11.3;;
69404;SDS011;57084;52.046;5.632;2022-12-07T04:48:00;12.4;;;11.3;;
69404;SDS011;57084;52.046;5.632;2022-12-07T04:49:00;12.4;;;11.3;;
69404;SDS011;57084;52.046;5.632;2022-12-07T04:50:00;12.4;;;11.3;;
69404;SDS011;57084;52.046;5.632;2022-12-07T04:51:02;12.4;;;11.3;;
69404;SDS011;57084;52.046;5.632;2022-12-07T04:52:00;12.0;;;10.9;;
69404;SDS011;57084;52.046;5.632;2022-12-07T04:53:00;12.0;;;10.9;;
69404;SDS011;57084;52.046;5.632;2022-12-07T04:54:00;12.0;;;10.9;;
69404;SDS011;57084;52.046;5.632;2022-12-07T04:55:00;12.0;;;10.9;;
69404;SDS011;57084;52.046;5.632;2022-12-07T04:56:00;12.0;;;10.9;;
69404;SDS011;57084;52.046;5.632;2022-12-07T04:57:00;11.8;;;10.7;;
69404;SDS011;57084;52.046;5.632;2022-12-07T04:58:00;11.8;;;10.7;;
69404;SDS011;57084;52.046;5.632;2022-12-07T04:59:01;11.8;;;10.7;;
69404;SDS011;57084;52.046;5.632;2022-12-07T05:00:00;11.8;;;10.7;;
69404;SDS011;57084;52.046;5.632;2022-12-07T05:01:00;11.8;;;10.7;;
69404;SDS011;57084;52.046;5.632;2022-12-07T05:02:00;11.8;;;10.8;;
69404;SDS011;57084;52.046;5.632;2022-12-07T05:03:00;11.8;;;10.8;;
69404;SDS011;57084;52.046;5.632;2022-12-07T05:04:00;11.8;;;10.8;;
69404;SDS011;57084;52.046;5.632;2022-12-07T05:05:00;11.8;;;10.8;;
69404;SDS011;57084;52.046;5.632;2022-12-07T05:06:00;11.8;;;10.8;;
69404;SDS011;57084;52.046;5.632;2022-12-07T05:07:00;12.3;;;11.0;;
69404;SDS011;57084;52.046;5.632;2022-12-07T05:08:00;12.3;;;11.0;;
69404;SDS011;57084;52.046;5.632;2022-12-07T05:09:00;12.3;;;11.0;;
69404;SDS011;57084;52.046;5.632;2022-12-07T05:10:00;12.3;;;11.0;;
69404;SDS011;57084;52.046;5.632;2022-12-07T05:11:01;12.3;;;11.0;;
69404;SDS011;57084;52.046;5.632;2022-12-07T05:12:00;16.4;;;11.2;;
69404;SDS011;57084;52.046;5.632;2022-12-07T05:13:00;16.4;;;11.2;;
69404;SDS011;57084;52.046;5.632;2022-12-07T05:14:01;16.4;;;11.2;;
69404;SDS011;57084;52.046;5.632;2022-12-07T05:15:00;16.4;;;11.2;;
69404;SDS011;57084;52.046;5.632;2022-12-07T05:16:00;16.4;;;11.2;;
69404;SDS011;57084;52.046;5.632;2022-12-07T05:17:00;12.3;;;11.1;;
69404;SDS011;57084;52.046;5.632;2022-12-07T05:18:00;12.3;;;11.1;;
69404;SDS011;57084;52.046;5.632;2022-12-07T05:19:00;12.3;;;11.1;;
69404;SDS011;57084;52.046;5.632;2022-12-07T05:20:00;12.3;;;11.1;;
69404;SDS011;57084;52.046;5.632;2022-12-07T05:21:00;12.3;;;11.1;;
69404;SDS011;57084;52.046;5.632;2022-12-07T05:22:00;11.8;;;10.7;;
69404;SDS011;57084;52.046;5.632;2022-12-07T05:23:00;11.8;;;10.7;;
69404;SDS011;57084;52.046;5.632;2022-12-07T05:24:00;11.8;;;10.7;;
69404;SDS011;57084;52.046;5.632;2022-12-07T05:25:00;11.8;;;10.7;;
69404;SDS011;57084;52.046;5.632;2022-12-07T05:26:00;11.8;;;10.7;;
69404;SDS011;57084;52.046;5.632;2022-12-07T05:27:00;12.2;;;10.1;;
69404;SDS011;57084;52.046;5.632;2022-12-07T05:28:00;12.2;;;10.1;;
69404;SDS011;57084;52.046;5.632;2022-12-07T05:29:00;12.2;;;10.1;;
69404;SDS011;57084;52.046;5.632;2022-12-07T05:30:00;12.2;;;10.1;;
69404;SDS011;57084;52.046;5.632;2022-12-07T05:31:01;12.2;;;10.1;;
69404;SDS011;57084;52.046;5.632;2022-12-07T05:32:00;11.4;;;10.3;;
69404;SDS011;57084;52.046;5.632;2022-12-07T05:33:00;11.4;;;10.3;;
69404;SDS011;57084;52.046;5.632;2022-12-07T05:34:00;11.4;;;10.3;;
69404;SDS011;57084;52.046;5.632;2022-12-07T05:35:00;11.4;;;10.3;;
69404;SDS011;57084;52.046;5.632;2022-12-07T05:36:00;11.4;;;10.3;;
69404;SDS011;57084;52.046;5.632;2022-12-07T05:37:00;11.7;;;10.5;;
69404;SDS011;57084;52.046;5.632;2022-12-07T05:38:00;11.7;;;10.5;;
69404;SDS011;57084;52.046;5.632;2022-12-07T05:39:00;11.7;;;10.5;;
69404;SDS011;57084;52.046;5.632;2022-12-07T05:40:00;11.7;;;10.5;;
69404;SDS011;57084;52.046;5.632;2022-12-07T05:41:01;11.7;;;10.5;;
69404;SDS011;57084;52.046;5.632;2022-12-07T05:42:00;11.6;;;10.4;;
69404;SDS011;57084;52.046;5.632;2022-12-07T05:43:00;11.6;;;10.4;;
69404;SDS011;57084;52.046;5.632;2022-12-07T05:44:00;11.6;;;10.4;;
69404;SDS011;57084;52.046;5.632;2022-12-07T05:45:00;11.6;;;10.4;;
69404;SDS011;57084;52.046;5.632;2022-12-07T05:46:00;11.6;;;10.4;;
69404;SDS011;57084;52.046;5.632;2022-12-07T05:47:00;12.1;;;11.0;;
69404;SDS011;57084;52.046;5.632;2022-12-07T05:48:00;12.1;;;11.0;;
69404;SDS011;57084;52.046;5.632;2022-12-07T05:49:01;12.1;;;11.0;;
69404;SDS011;57084;52.046;5.632;2022-12-07T05:50:00;12.1;;;11.0;;
69404;SDS011;57084;52.046;5.632;2022-12-07T05:51:00;12.1;;;11.0;;
69404;SDS011;57084;52.046;5.632;2022-12-07T05:52:01;12.0;;;10.9;;
69404;SDS011;57084;52.046;5.632;2022-12-07T05:53:00;12.0;;;10.9;;
69404;SDS011;57084;52.046;5.632;2022-12-07T05:54:00;12.0;;;10.9;;
69404;SDS011;57084;52.046;5.632;2022-12-07T05:55:00;12.0;;;10.9;;
69404;SDS011;57084;52.046;5.632;2022-12-07T05:56:00;12.0;;;10.9;;
69404;SDS011;57084;52.046;5.632;2022-12-07T05:57:00;11.5;;;10.5;;
69404;SDS011;57084;52.046;5.632;2022-12-07T05:58:00;11.5;;;10.5;;
69404;SDS011;57084;52.046;5.632;2022-12-07T05:59:00;11.5;;;10.5;;
69404;SDS011;57084;52.046;5.632;2022-12-07T06:00:00;11.5;;;10.5;;
69404;SDS011;57084;52.046;5.632;2022-12-07T06:01:00;11.5;;;10.5;;
69404;SDS011;57084;52.046;5.632;2022-12-07T06:02:02;11.3;;;10.3;;
69404;SDS011;57084;52.046;5.632;2022-12-07T06:03:00;11.3;;;10.3;;
69404;SDS011;57084;52.046;5.632;2022-12-07T06:04:00;11.3;;;10.3;;